DTTN

Jendouba Airport

Jendouba, Tunisia
METAR DTTN 201400Z 03007KT 340V110 CAVOK 41/11 Q1012 SIROCCO
Observed Flight Rules
Jul-20 @ 14:00 UTC (28 minutes ago) Visual Flight Rules
Wind Visibility Clouds
30° at 7 knots 10,000+ meters
  • Clear skies
Temperatures Readings
Current 41°C / 106°F
Dewpoint 11°C / 52°F
Humidity 17%
Altimeter 29.88" Hg
Pressure 1012 hPa
Elevation 144
METAR DTTN 201400Z 03007KT 340V110 CAVOK 41/11 Q1012 SIROCCO
Observed Flight Rules
Jul-20 @ 14:00 UTC
(28 minutes ago)
VFR
Wind Visibility
30° at 7 knots 10,000+ meters
Clouds
  • Clear skies
Temperature Dewpoint
41°C / 106°F 11°C / 52°F
Humidity Altimeter Pressure
17% 29.88" Hg 1012 hPa